sensor_id;sensor_type;location;lat;lon;timestamp;P1;durP1;ratioP1;P2;durP2;ratioP2
38779;SDS011;29273;49.962;9.768;2022-11-11T00:01:09;2.05;;;1.85;;
38779;SDS011;29273;49.962;9.768;2022-11-11T00:03:55;2.40;;;1.90;;
38779;SDS011;29273;49.962;9.768;2022-11-11T00:06:39;2.28;;;1.63;;
38779;SDS011;29273;49.962;9.768;2022-11-11T00:09:23;2.47;;;1.98;;
38779;SDS011;29273;49.962;9.768;2022-11-11T00:12:07;4.07;;;1.70;;
38779;SDS011;29273;49.962;9.768;2022-11-11T00:14:51;1.60;;;1.50;;
38779;SDS011;29273;49.962;9.768;2022-11-11T00:17:36;2.28;;;2.08;;
38779;SDS011;29273;49.962;9.768;2022-11-11T00:20:39;2.72;;;2.03;;
38779;SDS011;29273;49.962;9.768;2022-11-11T00:23:42;3.10;;;2.20;;
38779;SDS011;29273;49.962;9.768;2022-11-11T00:26:45;2.72;;;2.30;;
38779;SDS011;29273;49.962;9.768;2022-11-11T00:29:29;3.90;;;1.95;;
38779;SDS011;29273;49.962;9.768;2022-11-11T00:32:13;4.45;;;2.10;;
38779;SDS011;29273;49.962;9.768;2022-11-11T00:35:07;3.67;;;2.17;;
38779;SDS011;29273;49.962;9.768;2022-11-11T00:38:11;2.10;;;1.90;;
38779;SDS011;29273;49.962;9.768;2022-11-11T00:41:17;2.60;;;1.92;;
38779;SDS011;29273;49.962;9.768;2022-11-11T00:44:02;2.47;;;2.08;;
38779;SDS011;29273;49.962;9.768;2022-11-11T00:46:46;2.70;;;2.17;;
38779;SDS011;29273;49.962;9.768;2022-11-11T00:52:51;1.98;;;1.80;;
38779;SDS011;29273;49.962;9.768;2022-11-11T00:55:35;2.00;;;1.80;;
38779;SDS011;29273;49.962;9.768;2022-11-11T00:58:20;2.05;;;1.88;;
38779;SDS011;29273;49.962;9.768;2022-11-11T01:01:05;2.85;;;2.28;;
38779;SDS011;29273;49.962;9.768;2022-11-11T01:03:49;2.88;;;2.35;;
38779;SDS011;29273;49.962;9.768;2022-11-11T01:06:33;2.97;;;2.45;;
38779;SDS011;29273;49.962;9.768;2022-11-11T01:09:17;2.70;;;2.25;;
38779;SDS011;29273;49.962;9.768;2022-11-11T01:12:01;3.47;;;2.25;;
38779;SDS011;29273;49.962;9.768;2022-11-11T01:14:45;3.28;;;2.60;;
38779;SDS011;29273;49.962;9.768;2022-11-11T01:17:30;3.40;;;2.70;;
38779;SDS011;29273;49.962;9.768;2022-11-11T01:20:14;5.32;;;3.30;;
38779;SDS011;29273;49.962;9.768;2022-11-11T01:22:58;3.60;;;3.03;;
38779;SDS011;29273;49.962;9.768;2022-11-11T01:25:42;4.13;;;3.20;;
38779;SDS011;29273;49.962;9.768;2022-11-11T01:28:27;4.30;;;3.08;;
38779;SDS011;29273;49.962;9.768;2022-11-11T01:31:12;3.00;;;2.50;;
38779;SDS011;29273;49.962;9.768;2022-11-11T01:33:57;2.83;;;2.40;;
38779;SDS011;29273;49.962;9.768;2022-11-11T01:36:41;3.05;;;2.55;;
38779;SDS011;29273;49.962;9.768;2022-11-11T01:39:24;3.25;;;2.63;;
38779;SDS011;29273;49.962;9.768;2022-11-11T01:42:09;3.92;;;2.47;;
38779;SDS011;29273;49.962;9.768;2022-11-11T01:44:53;2.33;;;2.00;;
38779;SDS011;29273;49.962;9.768;2022-11-11T01:47:37;2.60;;;2.40;;
38779;SDS011;29273;49.962;9.768;2022-11-11T01:50:41;3.67;;;2.45;;
38779;SDS011;29273;49.962;9.768;2022-11-11T01:53:25;3.13;;;2.42;;
38779;SDS011;29273;49.962;9.768;2022-11-11T01:56:09;3.05;;;2.40;;
38779;SDS011;29273;49.962;9.768;2022-11-11T01:58:56;2.97;;;2.30;;
38779;SDS011;29273;49.962;9.768;2022-11-11T02:01:43;2.53;;;2.03;;
38779;SDS011;29273;49.962;9.768;2022-11-11T02:04:28;2.58;;;2.30;;
38779;SDS011;29273;49.962;9.768;2022-11-11T02:07:32;3.05;;;2.30;;
38779;SDS011;29273;49.962;9.768;2022-11-11T02:10:19;3.60;;;2.20;;
38779;SDS011;29273;49.962;9.768;2022-11-11T02:13:13;3.40;;;2.47;;
38779;SDS011;29273;49.962;9.768;2022-11-11T02:16:17;2.10;;;1.90;;
38779;SDS011;29273;49.962;9.768;2022-11-11T02:19:01;2.05;;;1.83;;
38779;SDS011;29273;49.962;9.768;2022-11-11T02:21:48;2.00;;;1.80;;
38779;SDS011;29273;49.962;9.768;2022-11-11T02:24:39;2.42;;;2.05;;
38779;SDS011;29273;49.962;9.768;2022-11-11T02:27:25;2.85;;;2.20;;
38779;SDS011;29273;49.962;9.768;2022-11-11T02:30:13;2.35;;;2.08;;
38779;SDS011;29273;49.962;9.768;2022-11-11T02:33:00;2.90;;;2.35;;
38779;SDS011;29273;49.962;9.768;2022-11-11T02:35:45;2.33;;;2.00;;
38779;SDS011;29273;49.962;9.768;2022-11-11T02:38:39;2.85;;;2.20;;
38779;SDS011;29273;49.962;9.768;2022-11-11T02:41:22;2.53;;;2.28;;
38779;SDS011;29273;49.962;9.768;2022-11-11T02:44:25;3.13;;;2.38;;
38779;SDS011;29273;49.962;9.768;2022-11-11T02:47:09;2.50;;;2.20;;
38779;SDS011;29273;49.962;9.768;2022-11-11T02:49:54;2.30;;;2.10;;
38779;SDS011;29273;49.962;9.768;2022-11-11T02:52:38;2.50;;;2.30;;
38779;SDS011;29273;49.962;9.768;2022-11-11T02:55:22;2.40;;;2.20;;
38779;SDS011;29273;49.962;9.768;2022-11-11T02:58:06;3.08;;;2.15;;
38779;SDS011;29273;49.962;9.768;2022-11-11T03:00:50;2.60;;;2.40;;
38779;SDS011;29273;49.962;9.768;2022-11-11T03:03:34;2.30;;;2.10;;
38779;SDS011;29273;49.962;9.768;2022-11-11T03:06:18;2.33;;;2.10;;
38779;SDS011;29273;49.962;9.768;2022-11-11T03:09:01;2.33;;;2.03;;
38779;SDS011;29273;49.962;9.768;2022-11-11T03:11:46;2.17;;;1.90;;
38779;SDS011;29273;49.962;9.768;2022-11-11T03:14:29;1.95;;;1.73;;
38779;SDS011;29273;49.962;9.768;2022-11-11T03:17:14;2.05;;;1.85;;
38779;SDS011;29273;49.962;9.768;2022-11-11T03:20:17;2.17;;;1.92;;
38779;SDS011;29273;49.962;9.768;2022-11-11T03:23:21;2.00;;;1.70;;
38779;SDS011;29273;49.962;9.768;2022-11-11T03:26:05;2.00;;;1.80;;
38779;SDS011;29273;49.962;9.768;2022-11-11T03:28:51;2.03;;;1.80;;
38779;SDS011;29273;49.962;9.768;2022-11-11T03:31:36;1.55;;;1.45;;
38779;SDS011;29273;49.962;9.768;2022-11-11T03:34:20;2.08;;;1.83;;
38779;SDS011;29273;49.962;9.768;2022-11-11T03:37:05;4.15;;;1.83;;
38779;SDS011;29273;49.962;9.768;2022-11-11T03:40:08;4.85;;;1.80;;
38779;SDS011;29273;49.962;9.768;2022-11-11T03:42:53;1.92;;;1.60;;
38779;SDS011;29273;49.962;9.768;2022-11-11T03:45:37;4.03;;;1.77;;
38779;SDS011;29273;49.962;9.768;2022-11-11T03:48:21;2.13;;;1.80;;
38779;SDS011;29273;49.962;9.768;2022-11-11T03:51:06;2.97;;;1.70;;
38779;SDS011;29273;49.962;9.768;2022-11-11T03:53:51;2.05;;;1.77;;
38779;SDS011;29273;49.962;9.768;2022-11-11T03:56:35;2.50;;;2.05;;
38779;SDS011;29273;49.962;9.768;2022-11-11T03:59:19;2.40;;;2.05;;
38779;SDS011;29273;49.962;9.768;2022-11-11T04:02:03;1.83;;;1.70;;
38779;SDS011;29273;49.962;9.768;2022-11-11T04:08:10;1.63;;;1.33;;
38779;SDS011;29273;49.962;9.768;2022-11-11T04:11:16;4.93;;;1.90;;
38779;SDS011;29273;49.962;9.768;2022-11-11T04:14:12;2.88;;;1.80;;
38779;SDS011;29273;49.962;9.768;2022-11-11T04:17:16;3.08;;;1.77;;
38779;SDS011;29273;49.962;9.768;2022-11-11T04:20:00;1.95;;;1.60;;
38779;SDS011;29273;49.962;9.768;2022-11-11T04:23:04;2.00;;;1.70;;
38779;SDS011;29273;49.962;9.768;2022-11-11T04:25:47;2.78;;;2.05;;
38779;SDS011;29273;49.962;9.768;2022-11-11T04:28:31;2.15;;;1.75;;
38779;SDS011;29273;49.962;9.768;2022-11-11T04:31:50;2.33;;;1.60;;
38779;SDS011;29273;49.962;9.768;2022-11-11T04:34:54;3.13;;;1.67;;
38779;SDS011;29273;49.962;9.768;2022-11-11T04:37:44;2.45;;;1.75;;
38779;SDS011;29273;49.962;9.768;2022-11-11T04:40:23;2.10;;;1.80;;
38779;SDS011;29273;49.962;9.768;2022-11-11T04:43:26;2.10;;;1.85;;
38779;SDS011;29273;49.962;9.768;2022-11-11T04:46:09;4.53;;;1.73;;
38779;SDS011;29273;49.962;9.768;2022-11-11T04:48:53;2.10;;;1.90;;
38779;SDS011;29273;49.962;9.768;2022-11-11T04:51:37;1.90;;;1.48;;
38779;SDS011;29273;49.962;9.768;2022-11-11T04:57:46;1.67;;;1.23;;
38779;SDS011;29273;49.962;9.768;2022-11-11T05:00:31;1.58;;;1.48;;
38779;SDS011;29273;49.962;9.768;2022-11-11T05:03:15;1.90;;;1.58;;
38779;SDS011;29273;49.962;9.768;2022-11-11T05:06:06;1.98;;;1.70;;
38779;SDS011;29273;49.962;9.768;2022-11-11T05:09:08;1.55;;;1.40;;
38779;SDS011;29273;49.962;9.768;2022-11-11T05:11:53;1.98;;;1.77;;
38779;SDS011;29273;49.962;9.768;2022-11-11T05:14:36;1.90;;;1.67;;
38779;SDS011;29273;49.962;9.768;2022-11-11T05:20:43;1.90;;;1.52;;
38779;SDS011;29273;49.962;9.768;2022-11-11T05:23:50;2.08;;;1.73;;
38779;SDS011;29273;49.962;9.768;2022-11-11T05:26:53;2.65;;;1.52;;
38779;SDS011;29273;49.962;9.768;2022-11-11T05:29:37;2.05;;;1.58;;
38779;SDS011;29273;49.962;9.768;2022-11-11T05:32:21;2.97;;;1.92;;
38779;SDS011;29273;49.962;9.768;2022-11-11T05:35:06;2.67;;;1.50;;
38779;SDS011;29273;49.962;9.768;2022-11-11T05:37:52;2.22;;;1.63;;
38779;SDS011;29273;49.962;9.768;2022-11-11T05:40:55;3.20;;;2.30;;
38779;SDS011;29273;49.962;9.768;2022-11-11T05:43:39;2.60;;;1.95;;
38779;SDS011;29273;49.962;9.768;2022-11-11T05:46:23;3.58;;;2.20;;
38779;SDS011;29273;49.962;9.768;2022-11-11T05:49:07;4.13;;;2.47;;
38779;SDS011;29273;49.962;9.768;2022-11-11T05:52:00;3.10;;;2.30;;
38779;SDS011;29273;49.962;9.768;2022-11-11T05:54:45;2.85;;;2.20;;
38779;SDS011;29273;49.962;9.768;2022-11-11T05:57:29;4.15;;;2.53;;
38779;SDS011;29273;49.962;9.768;2022-11-11T06:00:14;3.10;;;2.10;;
38779;SDS011;29273;49.962;9.768;2022-11-11T06:03:02;3.78;;;2.63;;
38779;SDS011;29273;49.962;9.768;2022-11-11T06:05:48;2.95;;;2.47;;
38779;SDS011;29273;49.962;9.768;2022-11-11T06:08:33;3.97;;;2.90;;
38779;SDS011;29273;49.962;9.768;2022-11-11T06:11:17;6.95;;;2.72;;
38779;SDS011;29273;49.962;9.768;2022-11-11T06:14:01;2.88;;;2.50;;
38779;SDS011;29273;49.962;9.768;2022-11-11T06:16:46;3.72;;;2.10;;
38779;SDS011;29273;49.962;9.768;2022-11-11T06:19:30;2.70;;;2.00;;
38779;SDS011;29273;49.962;9.768;2022-11-11T06:22:14;2.53;;;2.00;;
38779;SDS011;29273;49.962;9.768;2022-11-11T06:25:18;2.97;;;1.83;;
38779;SDS011;29273;49.962;9.768;2022-11-11T06:28:21;2.65;;;1.77;;
38779;SDS011;29273;49.962;9.768;2022-11-11T06:31:05;3.88;;;2.33;;
38779;SDS011;29273;49.962;9.768;2022-11-11T06:33:50;3.00;;;2.30;;
38779;SDS011;29273;49.962;9.768;2022-11-11T06:36:35;3.92;;;2.47;;
38779;SDS011;29273;49.962;9.768;2022-11-11T06:39:19;3.47;;;2.17;;
38779;SDS011;29273;49.962;9.768;2022-11-11T06:42:03;4.05;;;2.30;;
38779;SDS011;29273;49.962;9.768;2022-11-11T06:44:47;3.03;;;2.00;;
38779;SDS011;29273;49.962;9.768;2022-11-11T06:47:31;2.63;;;2.00;;
38779;SDS011;29273;49.962;9.768;2022-11-11T06:50:16;3.53;;;2.05;;
38779;SDS011;29273;49.962;9.768;2022-11-11T06:53:07;3.28;;;2.03;;
38779;SDS011;29273;49.962;9.768;2022-11-11T06:55:52;3.47;;;2.20;;
38779;SDS011;29273;49.962;9.768;2022-11-11T06:58:36;2.88;;;1.90;;
38779;SDS011;29273;49.962;9.768;2022-11-11T07:01:21;3.90;;;2.35;;
38779;SDS011;29273;49.962;9.768;2022-11-11T07:04:05;4.90;;;2.03;;
38779;SDS011;29273;49.962;9.768;2022-11-11T07:06:49;2.75;;;2.03;;
38779;SDS011;29273;49.962;9.768;2022-11-11T07:09:33;3.00;;;2.15;;
38779;SDS011;29273;49.962;9.768;2022-11-11T07:12:17;4.60;;;2.53;;
38779;SDS011;29273;49.962;9.768;2022-11-11T07:15:02;3.35;;;2.15;;
38779;SDS011;29273;49.962;9.768;2022-11-11T07:17:46;2.80;;;2.10;;
38779;SDS011;29273;49.962;9.768;2022-11-11T07:20:30;2.63;;;1.90;;
38779;SDS011;29273;49.962;9.768;2022-11-11T07:23:14;1.90;;;1.65;;
38779;SDS011;29273;49.962;9.768;2022-11-11T07:26:00;3.60;;;2.15;;
38779;SDS011;29273;49.962;9.768;2022-11-11T07:28:45;5.95;;;2.15;;
38779;SDS011;29273;49.962;9.768;2022-11-11T07:31:29;4.10;;;2.22;;
38779;SDS011;29273;49.962;9.768;2022-11-11T07:34:13;3.65;;;2.05;;
38779;SDS011;29273;49.962;9.768;2022-11-11T07:36:57;2.40;;;1.75;;
38779;SDS011;29273;49.962;9.768;2022-11-11T07:39:41;3.25;;;2.13;;
38779;SDS011;29273;49.962;9.768;2022-11-11T07:42:26;2.20;;;1.67;;
38779;SDS011;29273;49.962;9.768;2022-11-11T07:45:10;2.03;;;1.48;;
38779;SDS011;29273;49.962;9.768;2022-11-11T07:47:56;2.50;;;1.77;;
38779;SDS011;29273;49.962;9.768;2022-11-11T07:50:40;3.88;;;1.90;;
38779;SDS011;29273;49.962;9.768;2022-11-11T07:53:24;2.95;;;2.17;;
38779;SDS011;29273;49.962;9.768;2022-11-11T07:56:10;3.58;;;2.13;;
38779;SDS011;29273;49.962;9.768;2022-11-11T07:58:54;3.72;;;2.40;;
38779;SDS011;29273;49.962;9.768;2022-11-11T08:01:38;3.50;;;2.30;;
38779;SDS011;29273;49.962;9.768;2022-11-11T08:04:22;2.63;;;1.63;;
38779;SDS011;29273;49.962;9.768;2022-11-11T08:07:05;1.90;;;1.70;;
38779;SDS011;29273;49.962;9.768;2022-11-11T08:09:50;1.88;;;1.42;;
38779;SDS011;29273;49.962;9.768;2022-11-11T08:12:34;2.42;;;1.70;;
38779;SDS011;29273;49.962;9.768;2022-11-11T08:18:21;2.45;;;1.42;;
38779;SDS011;29273;49.962;9.768;2022-11-11T08:21:05;1.60;;;1.50;;
38779;SDS011;29273;49.962;9.768;2022-11-11T08:23:49;2.33;;;1.55;;
38779;SDS011;29273;49.962;9.768;2022-11-11T08:26:34;4.85;;;2.20;;
38779;SDS011;29273;49.962;9.768;2022-11-11T08:29:19;2.13;;;1.65;;
38779;SDS011;29273;49.962;9.768;2022-11-11T08:32:03;2.40;;;1.92;;
38779;SDS011;29273;49.962;9.768;2022-11-11T08:34:47;2.20;;;1.85;;
38779;SDS011;29273;49.962;9.768;2022-11-11T08:37:31;3.58;;;2.20;;
38779;SDS011;29273;49.962;9.768;2022-11-11T08:40:16;4.80;;;2.92;;
38779;SDS011;29273;49.962;9.768;2022-11-11T08:43:00;6.05;;;3.60;;
38779;SDS011;29273;49.962;9.768;2022-11-11T08:45:44;7.18;;;3.65;;
38779;SDS011;29273;49.962;9.768;2022-11-11T08:48:28;6.35;;;3.53;;
38779;SDS011;29273;49.962;9.768;2022-11-11T08:51:14;6.10;;;3.70;;
38779;SDS011;29273;49.962;9.768;2022-11-11T08:53:58;7.22;;;3.97;;
38779;SDS011;29273;49.962;9.768;2022-11-11T08:56:42;6.43;;;3.78;;
38779;SDS011;29273;49.962;9.768;2022-11-11T08:59:27;7.18;;;3.95;;
38779;SDS011;29273;49.962;9.768;2022-11-11T09:02:11;6.07;;;3.97;;
38779;SDS011;29273;49.962;9.768;2022-11-11T09:04:55;6.68;;;3.95;;
38779;SDS011;29273;49.962;9.768;2022-11-11T09:07:39;5.38;;;3.53;;
38779;SDS011;29273;49.962;9.768;2022-11-11T09:10:24;6.63;;;3.80;;
38779;SDS011;29273;49.962;9.768;2022-11-11T09:13:07;4.90;;;3.47;;
38779;SDS011;29273;49.962;9.768;2022-11-11T09:15:53;5.82;;;3.45;;
38779;SDS011;29273;49.962;9.768;2022-11-11T09:18:37;4.72;;;3.25;;
38779;SDS011;29273;49.962;9.768;2022-11-11T09:21:21;5.13;;;3.20;;
38779;SDS011;29273;49.962;9.768;2022-11-11T09:24:07;3.88;;;2.60;;
38779;SDS011;29273;49.962;9.768;2022-11-11T09:26:51;5.25;;;3.60;;
38779;SDS011;29273;49.962;9.768;2022-11-11T09:29:36;5.30;;;3.47;;
38779;SDS011;29273;49.962;9.768;2022-11-11T09:32:20;4.68;;;3.78;;
38779;SDS011;29273;49.962;9.768;2022-11-11T09:35:04;6.18;;;4.07;;
38779;SDS011;29273;49.962;9.768;2022-11-11T09:37:52;5.30;;;4.05;;
38779;SDS011;29273;49.962;9.768;2022-11-11T09:46:50;5.05;;;3.15;;
38779;SDS011;29273;49.962;9.768;2022-11-11T09:52:42;6.75;;;4.22;;
38779;SDS011;29273;49.962;9.768;2022-11-11T09:55:34;6.90;;;4.53;;
38779;SDS011;29273;49.962;9.768;2022-11-11T09:58:30;7.25;;;4.28;;
38779;SDS011;29273;49.962;9.768;2022-11-11T10:01:18;6.97;;;4.32;;
38779;SDS011;29273;49.962;9.768;2022-11-11T10:16:20;7.47;;;4.22;;
38779;SDS011;29273;49.962;9.768;2022-11-11T10:21:57;7.32;;;4.30;;
38779;SDS011;29273;49.962;9.768;2022-11-11T10:24:45;8.23;;;4.82;;
38779;SDS011;29273;49.962;9.768;2022-11-11T10:27:51;8.85;;;4.93;;
38779;SDS011;29273;49.962;9.768;2022-11-11T10:30:39;6.68;;;4.13;;
38779;SDS011;29273;49.962;9.768;2022-11-11T10:33:27;5.93;;;3.85;;
38779;SDS011;29273;49.962;9.768;2022-11-11T10:36:19;6.03;;;3.70;;
38779;SDS011;29273;49.962;9.768;2022-11-11T10:39:04;7.13;;;4.50;;
38779;SDS011;29273;49.962;9.768;2022-11-11T10:41:49;6.00;;;4.18;;
38779;SDS011;29273;49.962;9.768;2022-11-11T10:44:34;6.55;;;4.07;;
38779;SDS011;29273;49.962;9.768;2022-11-11T10:47:28;7.03;;;4.30;;
38779;SDS011;29273;49.962;9.768;2022-11-11T10:50:37;8.07;;;4.35;;
38779;SDS011;29273;49.962;9.768;2022-11-11T10:53:32;7.65;;;4.75;;
38779;SDS011;29273;49.962;9.768;2022-11-11T10:59:31;6.57;;;4.35;;
38779;SDS011;29273;49.962;9.768;2022-11-11T11:02:22;6.63;;;4.65;;
38779;SDS011;29273;49.962;9.768;2022-11-11T11:05:12;5.55;;;3.83;;
38779;SDS011;29273;49.962;9.768;2022-11-11T11:08:06;6.53;;;4.13;;
38779;SDS011;29273;49.962;9.768;2022-11-11T11:10:56;5.60;;;3.70;;
38779;SDS011;29273;49.962;9.768;2022-11-11T11:13:45;5.80;;;3.60;;
38779;SDS011;29273;49.962;9.768;2022-11-11T11:16:35;4.95;;;3.40;;
38779;SDS011;29273;49.962;9.768;2022-11-11T11:19:24;4.57;;;3.22;;
38779;SDS011;29273;49.962;9.768;2022-11-11T11:22:11;4.22;;;2.95;;
38779;SDS011;29273;49.962;9.768;2022-11-11T11:25:08;3.47;;;2.50;;
38779;SDS011;29273;49.962;9.768;2022-11-11T11:28:12;2.33;;;2.13;;
38779;SDS011;29273;49.962;9.768;2022-11-11T11:30:58;2.28;;;1.80;;
38779;SDS011;29273;49.962;9.768;2022-11-11T11:33:53;2.30;;;1.80;;
38779;SDS011;29273;49.962;9.768;2022-11-11T11:36:39;2.33;;;2.10;;
38779;SDS011;29273;49.962;9.768;2022-11-11T11:39:31;2.97;;;2.50;;
38779;SDS011;29273;49.962;9.768;2022-11-11T11:48:17;2.73;;;2.10;;
38779;SDS011;29273;49.962;9.768;2022-11-11T11:51:42;2.30;;;2.00;;
38779;SDS011;29273;49.962;9.768;2022-11-11T11:54:47;2.75;;;2.28;;
38779;SDS011;29273;49.962;9.768;2022-11-11T11:57:43;2.92;;;2.45;;
38779;SDS011;29273;49.962;9.768;2022-11-11T12:00:37;3.47;;;2.72;;
38779;SDS011;29273;49.962;9.768;2022-11-11T12:03:43;2.78;;;2.13;;
38779;SDS011;29273;49.962;9.768;2022-11-11T12:06:46;2.35;;;2.15;;
38779;SDS011;29273;49.962;9.768;2022-11-11T12:09:39;2.50;;;2.00;;
38779;SDS011;29273;49.962;9.768;2022-11-11T12:12:43;2.10;;;1.90;;
38779;SDS011;29273;49.962;9.768;2022-11-11T12:28:18;4.82;;;3.63;;
38779;SDS011;29273;49.962;9.768;2022-11-11T12:31:31;5.35;;;3.80;;
38779;SDS011;29273;49.962;9.768;2022-11-11T12:40:45;8.48;;;4.95;;
38779;SDS011;29273;49.962;9.768;2022-11-11T12:49:56;7.45;;;4.90;;
38779;SDS011;29273;49.962;9.768;2022-11-11T12:56:03;6.20;;;3.90;;
38779;SDS011;29273;49.962;9.768;2022-11-11T13:10:53;6.43;;;4.30;;
38779;SDS011;29273;49.962;9.768;2022-11-11T13:13:48;5.93;;;4.47;;
38779;SDS011;29273;49.962;9.768;2022-11-11T13:16:34;5.55;;;4.30;;
38779;SDS011;29273;49.962;9.768;2022-11-11T13:19:29;5.43;;;4.35;;
38779;SDS011;29273;49.962;9.768;2022-11-11T13:22:29;5.13;;;4.32;;
38779;SDS011;29273;49.962;9.768;2022-11-11T13:25:24;6.20;;;4.80;;
38779;SDS011;29273;49.962;9.768;2022-11-11T13:28:21;6.38;;;4.60;;
38779;SDS011;29273;49.962;9.768;2022-11-11T13:34:09;5.35;;;4.28;;
38779;SDS011;29273;49.962;9.768;2022-11-11T13:36:55;5.32;;;4.20;;
38779;SDS011;29273;49.962;9.768;2022-11-11T13:39:43;5.60;;;4.20;;
38779;SDS011;29273;49.962;9.768;2022-11-11T13:42:33;6.50;;;4.82;;
38779;SDS011;29273;49.962;9.768;2022-11-11T13:45:25;6.20;;;4.43;;
38779;SDS011;29273;49.962;9.768;2022-11-11T13:48:28;6.55;;;4.63;;
38779;SDS011;29273;49.962;9.768;2022-11-11T13:51:20;6.38;;;4.53;;
38779;SDS011;29273;49.962;9.768;2022-11-11T13:54:22;6.32;;;4.55;;
38779;SDS011;29273;49.962;9.768;2022-11-11T14:08:59;4.82;;;4.32;;
38779;SDS011;29273;49.962;9.768;2022-11-11T14:11:43;5.50;;;4.45;;
38779;SDS011;29273;49.962;9.768;2022-11-11T14:17:15;5.20;;;4.50;;
38779;SDS011;29273;49.962;9.768;2022-11-11T14:26:23;5.78;;;4.88;;
38779;SDS011;29273;49.962;9.768;2022-11-11T14:29:15;6.20;;;5.03;;
38779;SDS011;29273;49.962;9.768;2022-11-11T14:35:24;5.80;;;4.75;;
38779;SDS011;29273;49.962;9.768;2022-11-11T14:38:29;6.95;;;5.13;;
38779;SDS011;29273;49.962;9.768;2022-11-11T14:47:17;5.60;;;4.50;;
38779;SDS011;29273;49.962;9.768;2022-11-11T14:56:03;4.93;;;4.00;;
38779;SDS011;29273;49.962;9.768;2022-11-11T15:01:43;4.32;;;3.55;;
38779;SDS011;29273;49.962;9.768;2022-11-11T15:04:35;4.80;;;3.97;;
38779;SDS011;29273;49.962;9.768;2022-11-11T15:07:25;5.00;;;4.03;;
38779;SDS011;29273;49.962;9.768;2022-11-11T15:10:19;5.35;;;4.25;;
38779;SDS011;29273;49.962;9.768;2022-11-11T15:13:13;4.55;;;3.88;;
38779;SDS011;29273;49.962;9.768;2022-11-11T15:22:03;6.10;;;4.85;;
38779;SDS011;29273;49.962;9.768;2022-11-11T15:37:19;4.90;;;4.03;;
38779;SDS011;29273;49.962;9.768;2022-11-11T15:40:05;5.40;;;4.63;;
38779;SDS011;29273;49.962;9.768;2022-11-11T15:42:50;4.90;;;4.38;;
38779;SDS011;29273;49.962;9.768;2022-11-11T15:45:35;5.00;;;4.50;;
38779;SDS011;29273;49.962;9.768;2022-11-11T15:48:20;4.93;;;3.95;;
38779;SDS011;29273;49.962;9.768;2022-11-11T15:51:16;4.45;;;4.05;;
38779;SDS011;29273;49.962;9.768;2022-11-11T15:54:15;5.20;;;4.68;;
38779;SDS011;29273;49.962;9.768;2022-11-11T15:57:14;4.70;;;4.22;;
38779;SDS011;29273;49.962;9.768;2022-11-11T16:03:25;4.88;;;3.60;;
38779;SDS011;29273;49.962;9.768;2022-11-11T16:06:14;4.32;;;3.92;;
38779;SDS011;29273;49.962;9.768;2022-11-11T16:09:00;5.10;;;3.95;;
38779;SDS011;29273;49.962;9.768;2022-11-11T16:11:45;5.38;;;4.13;;
38779;SDS011;29273;49.962;9.768;2022-11-11T16:14:37;4.53;;;3.97;;
38779;SDS011;29273;49.962;9.768;2022-11-11T16:17:28;4.65;;;3.92;;
38779;SDS011;29273;49.962;9.768;2022-11-11T16:20:19;6.53;;;4.55;;
38779;SDS011;29273;49.962;9.768;2022-11-11T16:23:11;4.38;;;3.78;;
38779;SDS011;29273;49.962;9.768;2022-11-11T16:25:59;3.70;;;3.28;;
38779;SDS011;29273;49.962;9.768;2022-11-11T16:28:44;4.13;;;3.55;;
38779;SDS011;29273;49.962;9.768;2022-11-11T16:34:31;3.78;;;3.20;;
38779;SDS011;29273;49.962;9.768;2022-11-11T16:37:16;3.30;;;2.60;;
38779;SDS011;29273;49.962;9.768;2022-11-11T16:43:26;3.47;;;2.92;;
38779;SDS011;29273;49.962;9.768;2022-11-11T16:46:14;4.95;;;3.00;;
38779;SDS011;29273;49.962;9.768;2022-11-11T16:49:28;4.40;;;2.80;;
38779;SDS011;29273;49.962;9.768;2022-11-11T16:52:18;4.40;;;3.35;;
38779;SDS011;29273;49.962;9.768;2022-11-11T16:57:51;2.72;;;2.45;;
38779;SDS011;29273;49.962;9.768;2022-11-11T17:00:36;3.90;;;3.50;;
38779;SDS011;29273;49.962;9.768;2022-11-11T17:03:22;3.72;;;3.33;;
38779;SDS011;29273;49.962;9.768;2022-11-11T17:06:10;3.65;;;3.33;;
38779;SDS011;29273;49.962;9.768;2022-11-11T17:08:54;4.57;;;4.10;;
38779;SDS011;29273;49.962;9.768;2022-11-11T17:14:24;5.10;;;4.32;;
38779;SDS011;29273;49.962;9.768;2022-11-11T17:17:09;4.47;;;3.78;;
38779;SDS011;29273;49.962;9.768;2022-11-11T17:19:54;4.45;;;3.65;;
38779;SDS011;29273;49.962;9.768;2022-11-11T17:22:47;4.00;;;3.38;;
38779;SDS011;29273;49.962;9.768;2022-11-11T17:25:35;4.63;;;4.03;;
38779;SDS011;29273;49.962;9.768;2022-11-11T17:28:20;5.65;;;4.50;;
38779;SDS011;29273;49.962;9.768;2022-11-11T17:31:06;5.40;;;4.57;;
38779;SDS011;29273;49.962;9.768;2022-11-11T17:33:51;4.60;;;3.85;;
38779;SDS011;29273;49.962;9.768;2022-11-11T17:36:36;4.15;;;3.75;;
38779;SDS011;29273;49.962;9.768;2022-11-11T17:39:20;4.63;;;4.00;;
38779;SDS011;29273;49.962;9.768;2022-11-11T17:42:04;3.97;;;3.50;;
38779;SDS011;29273;49.962;9.768;2022-11-11T17:44:48;4.20;;;3.72;;
38779;SDS011;29273;49.962;9.768;2022-11-11T17:47:32;4.00;;;3.60;;
38779;SDS011;29273;49.962;9.768;2022-11-11T17:50:17;3.60;;;3.30;;
38779;SDS011;29273;49.962;9.768;2022-11-11T17:53:01;3.55;;;3.25;;
38779;SDS011;29273;49.962;9.768;2022-11-11T17:55:45;3.83;;;3.42;;
38779;SDS011;29273;49.962;9.768;2022-11-11T17:58:29;4.18;;;3.65;;
38779;SDS011;29273;49.962;9.768;2022-11-11T18:01:14;3.67;;;3.20;;
38779;SDS011;29273;49.962;9.768;2022-11-11T18:03:58;3.85;;;3.45;;
38779;SDS011;29273;49.962;9.768;2022-11-11T18:06:42;3.60;;;3.28;;
38779;SDS011;29273;49.962;9.768;2022-11-11T18:09:27;3.50;;;3.17;;
38779;SDS011;29273;49.962;9.768;2022-11-11T18:12:11;3.72;;;3.35;;
38779;SDS011;29273;49.962;9.768;2022-11-11T18:14:55;3.47;;;3.17;;
38779;SDS011;29273;49.962;9.768;2022-11-11T18:17:39;4.10;;;3.58;;
38779;SDS011;29273;49.962;9.768;2022-11-11T18:20:23;3.15;;;2.80;;
38779;SDS011;29273;49.962;9.768;2022-11-11T18:23:07;3.47;;;3.17;;
38779;SDS011;29273;49.962;9.768;2022-11-11T18:25:54;4.30;;;3.90;;
38779;SDS011;29273;49.962;9.768;2022-11-11T18:28:39;4.13;;;3.33;;
38779;SDS011;29273;49.962;9.768;2022-11-11T18:31:23;4.20;;;3.17;;
38779;SDS011;29273;49.962;9.768;2022-11-11T18:34:07;4.72;;;3.60;;
38779;SDS011;29273;49.962;9.768;2022-11-11T18:36:51;3.92;;;3.47;;
38779;SDS011;29273;49.962;9.768;2022-11-11T18:39:36;3.88;;;3.42;;
38779;SDS011;29273;49.962;9.768;2022-11-11T18:42:20;3.83;;;3.40;;
38779;SDS011;29273;49.962;9.768;2022-11-11T18:45:05;5.45;;;4.07;;
38779;SDS011;29273;49.962;9.768;2022-11-11T18:47:49;4.82;;;3.80;;
38779;SDS011;29273;49.962;9.768;2022-11-11T18:50:33;4.97;;;3.95;;
38779;SDS011;29273;49.962;9.768;2022-11-11T18:53:17;4.78;;;3.75;;
38779;SDS011;29273;49.962;9.768;2022-11-11T18:56:02;5.78;;;4.20;;
38779;SDS011;29273;49.962;9.768;2022-11-11T18:58:51;4.70;;;3.70;;
38779;SDS011;29273;49.962;9.768;2022-11-11T19:01:37;5.07;;;4.03;;
38779;SDS011;29273;49.962;9.768;2022-11-11T19:04:22;6.55;;;3.92;;
38779;SDS011;29273;49.962;9.768;2022-11-11T19:07:07;3.88;;;3.47;;
38779;SDS011;29273;49.962;9.768;2022-11-11T19:09:51;3.90;;;3.50;;
38779;SDS011;29273;49.962;9.768;2022-11-11T19:12:35;3.92;;;3.53;;
38779;SDS011;29273;49.962;9.768;2022-11-11T19:15:20;3.50;;;3.20;;
38779;SDS011;29273;49.962;9.768;2022-11-11T19:18:04;4.07;;;3.50;;
38779;SDS011;29273;49.962;9.768;2022-11-11T19:20:48;3.75;;;3.35;;
38779;SDS011;29273;49.962;9.768;2022-11-11T19:23:32;4.75;;;3.80;;
38779;SDS011;29273;49.962;9.768;2022-11-11T19:26:17;3.72;;;3.42;;
38779;SDS011;29273;49.962;9.768;2022-11-11T19:29:02;4.00;;;3.58;;
38779;SDS011;29273;49.962;9.768;2022-11-11T19:31:48;3.78;;;3.38;;
38779;SDS011;29273;49.962;9.768;2022-11-11T19:34:34;5.47;;;3.33;;
38779;SDS011;29273;49.962;9.768;2022-11-11T19:37:18;3.95;;;3.25;;
38779;SDS011;29273;49.962;9.768;2022-11-11T19:40:05;4.70;;;3.58;;